PSA565 KLAX-KSAN
Flight info
| Callsign | PSA565 |
|---|---|
| Flight time | 0h 29m |
| Altitude | 15000 |
| Route | LAXX1 SLI OCN MZB |
| Aircraft | B722/M-SDFGHRWY/C |
Departure
| Time | 2026-04-24 21:58 |
|---|---|
| Airport | Los Angeles International Airport (KLAX) |
Arrival
| Time | 2026-04-24 22:27 |
|---|---|
| Airport | San Diego International Airport (KSAN) |
| Time | Latitude | Longitude | Altitude | Speed | Heading |
|---|---|---|---|---|---|
| 2026-04-24 21:21 | 33.94674 | -118.40324 | 124 ft | 0 kts | 263° |
| 2026-04-24 21:35 | 33.94674 | -118.40323 | 129 ft | 0 kts | 263° |
| 2026-04-24 21:49 | 33.94679 | -118.40297 | 126 ft | 4 kts | 255° |
| 2026-04-24 21:49 | 33.94680 | -118.40290 | 126 ft | 4 kts | 263° |
| 2026-04-24 21:50 | 33.94675 | -118.40269 | 127 ft | 4 kts | 299° |
| 2026-04-24 21:50 | 33.94657 | -118.40249 | 126 ft | 4 kts | 336° |
| 2026-04-24 21:50 | 33.94640 | -118.40244 | 124 ft | 1 kts | 353° |
| 2026-04-24 21:50 | 33.94637 | -118.40244 | 125 ft | 0 kts | 353° |
| 2026-04-24 21:54 | 33.94648 | -118.40245 | 125 ft | 5 kts | 353° |
| 2026-04-24 21:54 | 33.94699 | -118.40253 | 126 ft | 9 kts | 353° |
| 2026-04-24 21:55 | 33.94774 | -118.40264 | 126 ft | 13 kts | 353° |
| 2026-04-24 21:55 | 33.94867 | -118.40292 | 127 ft | 15 kts | 7° |
| 2026-04-24 21:55 | 33.94909 | -118.40197 | 125 ft | 11 kts | 59° |
| 2026-04-24 21:55 | 33.94984 | -118.40175 | 126 ft | 10 kts | 353° |
| 2026-04-24 21:56 | 33.95015 | -118.40215 | 124 ft | 8 kts | 267° |
| 2026-04-24 21:56 | 33.95014 | -118.40226 | 126 ft | 0 kts | 263° |
| 2026-04-24 21:57 | 33.95010 | -118.40266 | 128 ft | 19 kts | 263° |
| 2026-04-24 21:57 | 33.94969 | -118.40649 | 129 ft | 73 kts | 263° |
| 2026-04-24 21:57 | 33.94886 | -118.41459 | 129 ft | 119 kts | 263° |
| 2026-04-24 21:58 | 33.94758 | -118.42576 | 177 ft | 146 kts | 262° |
| 2026-04-24 21:58 | 33.94670 | -118.43855 | 492 ft | 166 kts | 264° |
| 2026-04-24 21:58 | 33.94610 | -118.45264 | 1324 ft | 170 kts | 264° |
| 2026-04-24 21:58 | 33.94547 | -118.46759 | 2008 ft | 186 kts | 264° |
| 2026-04-24 21:59 | 33.94451 | -118.48337 | 2707 ft | 195 kts | 264° |
| 2026-04-24 21:59 | 33.94306 | -118.50011 | 3275 ft | 206 kts | 263° |
| 2026-04-24 21:59 | 33.94141 | -118.51774 | 3829 ft | 216 kts | 262° |
| 2026-04-24 21:59 | 33.93965 | -118.53609 | 4378 ft | 224 kts | 262° |
| 2026-04-24 22:00 | 33.93785 | -118.55491 | 4929 ft | 225 kts | 262° |
| 2026-04-24 22:00 | 33.93514 | -118.57349 | 5434 ft | 226 kts | 249° |
| 2026-04-24 22:00 | 33.92502 | -118.58790 | 5921 ft | 234 kts | 210° |
| 2026-04-24 22:00 | 33.90898 | -118.59116 | 6442 ft | 243 kts | 172° |
| 2026-04-24 22:01 | 33.89317 | -118.58381 | 6932 ft | 255 kts | 155° |
| 2026-04-24 22:01 | 33.87699 | -118.57264 | 7424 ft | 281 kts | 149° |
| 2026-04-24 22:01 | 33.86178 | -118.55713 | 7918 ft | 290 kts | 129° |
| 2026-04-24 22:01 | 33.85287 | -118.53505 | 8423 ft | 296 kts | 109° |
| 2026-04-24 22:02 | 33.84766 | -118.51075 | 8937 ft | 303 kts | 103° |
| 2026-04-24 22:02 | 33.84380 | -118.48576 | 9439 ft | 304 kts | 101° |
| 2026-04-24 22:02 | 33.84006 | -118.46062 | 9928 ft | 307 kts | 101° |
| 2026-04-24 22:02 | 33.83627 | -118.43512 | 10381 ft | 310 kts | 100° |
| 2026-04-24 22:03 | 33.83442 | -118.40870 | 10839 ft | 328 kts | 93° |
| 2026-04-24 22:03 | 33.83376 | -118.38034 | 11340 ft | 350 kts | 93° |
| 2026-04-24 22:03 | 33.83268 | -118.35065 | 11848 ft | 357 kts | 95° |
| 2026-04-24 22:03 | 33.83088 | -118.32059 | 12342 ft | 362 kts | 97° |
| 2026-04-24 22:04 | 33.82830 | -118.29030 | 12840 ft | 365 kts | 99° |
| 2026-04-24 22:04 | 33.82461 | -118.25977 | 12975 ft | 369 kts | 101° |
| 2026-04-24 22:04 | 33.82028 | -118.22936 | 12957 ft | 367 kts | 103° |
| 2026-04-24 22:04 | 33.81513 | -118.19936 | 12953 ft | 365 kts | 105° |
| 2026-04-24 22:05 | 33.80914 | -118.16945 | 12961 ft | 369 kts | 107° |
| 2026-04-24 22:05 | 33.80263 | -118.13961 | 12958 ft | 368 kts | 108° |
| 2026-04-24 22:05 | 33.79599 | -118.11024 | 12927 ft | 368 kts | 108° |
| 2026-04-24 22:05 | 33.78914 | -118.08019 | 12933 ft | 368 kts | 108° |
| 2026-04-24 22:06 | 33.78254 | -118.05098 | 12920 ft | 364 kts | 107° |
| 2026-04-24 22:06 | 33.77380 | -118.02261 | 12935 ft | 361 kts | 120° |
| 2026-04-24 22:06 | 33.76143 | -117.99636 | 12932 ft | 359 kts | 126° |
| 2026-04-24 22:06 | 33.74760 | -117.97136 | 12963 ft | 358 kts | 129° |
| 2026-04-24 22:07 | 33.73411 | -117.94892 | 12973 ft | 357 kts | 130° |
| 2026-04-24 22:07 | 33.71894 | -117.92525 | 12970 ft | 356 kts | 132° |
| 2026-04-24 22:07 | 33.70332 | -117.90222 | 12955 ft | 355 kts | 134° |
| 2026-04-24 22:07 | 33.68716 | -117.87971 | 12969 ft | 354 kts | 136° |
| 2026-04-24 22:08 | 33.67027 | -117.85806 | 12966 ft | 354 kts | 138° |
| 2026-04-24 22:08 | 33.65296 | -117.83695 | 12966 ft | 355 kts | 139° |
| 2026-04-24 22:08 | 33.63523 | -117.81643 | 12968 ft | 354 kts | 141° |
| 2026-04-24 22:08 | 33.61701 | -117.79663 | 12967 ft | 353 kts | 143° |
| 2026-04-24 22:09 | 33.59840 | -117.77732 | 12968 ft | 353 kts | 144° |
| 2026-04-24 22:09 | 33.57982 | -117.75854 | 12973 ft | 352 kts | 144° |
| 2026-04-24 22:09 | 33.56098 | -117.73970 | 12972 ft | 352 kts | 145° |
| 2026-04-24 22:09 | 33.54220 | -117.72089 | 12963 ft | 352 kts | 144° |
| 2026-04-24 22:10 | 33.52338 | -117.70195 | 12961 ft | 352 kts | 144° |
| 2026-04-24 22:10 | 33.50452 | -117.68296 | 12959 ft | 352 kts | 144° |
| 2026-04-24 22:10 | 33.48572 | -117.66402 | 12962 ft | 353 kts | 144° |
| 2026-04-24 22:10 | 33.46703 | -117.64520 | 12950 ft | 357 kts | 144° |
| 2026-04-24 22:11 | 33.44778 | -117.62582 | 12959 ft | 357 kts | 145° |
| 2026-04-24 22:11 | 33.42906 | -117.60699 | 12962 ft | 357 kts | 144° |
| 2026-04-24 22:11 | 33.41008 | -117.58787 | 12960 ft | 357 kts | 144° |
| 2026-04-24 22:11 | 33.39111 | -117.56870 | 12833 ft | 359 kts | 144° |
| 2026-04-24 22:12 | 33.37210 | -117.54957 | 12437 ft | 355 kts | 144° |
| 2026-04-24 22:12 | 33.35322 | -117.53061 | 12037 ft | 352 kts | 144° |
| 2026-04-24 22:12 | 33.33447 | -117.51180 | 11618 ft | 349 kts | 144° |
| 2026-04-24 22:12 | 33.31591 | -117.49320 | 11240 ft | 346 kts | 144° |
| 2026-04-24 22:13 | 33.29755 | -117.47480 | 10851 ft | 343 kts | 143° |
| 2026-04-24 22:13 | 33.27937 | -117.45660 | 10475 ft | 336 kts | 143° |
| 2026-04-24 22:13 | 33.26163 | -117.43883 | 10088 ft | 329 kts | 143° |
| 2026-04-24 22:13 | 33.24361 | -117.42278 | 9667 ft | 318 kts | 157° |
| 2026-04-24 22:14 | 33.22305 | -117.41446 | 9244 ft | 308 kts | 169° |
| 2026-04-24 22:14 | 33.20259 | -117.40921 | 8839 ft | 301 kts | 172° |
| 2026-04-24 22:14 | 33.18222 | -117.40429 | 8425 ft | 296 kts | 171° |
| 2026-04-24 22:14 | 33.16221 | -117.39898 | 8031 ft | 294 kts | 168° |
| 2026-04-24 22:15 | 33.14249 | -117.39244 | 7630 ft | 292 kts | 166° |
| 2026-04-24 22:15 | 33.12309 | -117.38547 | 7247 ft | 291 kts | 166° |
| 2026-04-24 22:15 | 33.10385 | -117.37805 | 6869 ft | 290 kts | 163° |
| 2026-04-24 22:15 | 33.08485 | -117.37005 | 6475 ft | 289 kts | 161° |
| 2026-04-24 22:16 | 33.06601 | -117.36160 | 6078 ft | 288 kts | 160° |
| 2026-04-24 22:16 | 33.04764 | -117.35301 | 5970 ft | 280 kts | 161° |
| 2026-04-24 22:16 | 33.02965 | -117.34444 | 5965 ft | 273 kts | 161° |
| 2026-04-24 22:16 | 33.01255 | -117.33621 | 5964 ft | 257 kts | 160° |
| 2026-04-24 22:17 | 32.99628 | -117.32836 | 5965 ft | 249 kts | 160° |
| 2026-04-24 22:17 | 32.98029 | -117.32067 | 5971 ft | 247 kts | 160° |
| 2026-04-24 22:17 | 32.96431 | -117.31299 | 5903 ft | 251 kts | 160° |
| 2026-04-24 22:17 | 32.94807 | -117.30519 | 5656 ft | 252 kts | 160° |
| 2026-04-24 22:18 | 32.93200 | -117.29745 | 5420 ft | 252 kts | 159° |
| 2026-04-24 22:18 | 32.91569 | -117.28962 | 5157 ft | 251 kts | 159° |
| 2026-04-24 22:18 | 32.89949 | -117.28184 | 4851 ft | 251 kts | 158° |
| 2026-04-24 22:18 | 32.88333 | -117.27407 | 4530 ft | 250 kts | 158° |
| 2026-04-24 22:19 | 32.86720 | -117.26629 | 4210 ft | 250 kts | 158° |
| 2026-04-24 22:19 | 32.85113 | -117.25855 | 4003 ft | 245 kts | 159° |
| 2026-04-24 22:19 | 32.83592 | -117.25128 | 3983 ft | 232 kts | 159° |
| 2026-04-24 22:19 | 32.82204 | -117.24238 | 3925 ft | 227 kts | 136° |
| 2026-04-24 22:20 | 32.81439 | -117.22660 | 3964 ft | 215 kts | 109° |
| 2026-04-24 22:20 | 32.81033 | -117.20964 | 4003 ft | 213 kts | 105° |
| 2026-04-24 22:20 | 32.80636 | -117.19253 | 3796 ft | 216 kts | 106° |
| 2026-04-24 22:20 | 32.80235 | -117.17521 | 3516 ft | 217 kts | 106° |
| 2026-04-24 22:21 | 32.79854 | -117.15781 | 3253 ft | 218 kts | 105° |
| 2026-04-24 22:21 | 32.79489 | -117.14033 | 2983 ft | 218 kts | 105° |
| 2026-04-24 22:21 | 32.79143 | -117.12320 | 2984 ft | 210 kts | 105° |
| 2026-04-24 22:21 | 32.78785 | -117.10634 | 2973 ft | 213 kts | 107° |
| 2026-04-24 22:22 | 32.78428 | -117.08918 | 2978 ft | 214 kts | 105° |
| 2026-04-24 22:22 | 32.78081 | -117.07222 | 2965 ft | 212 kts | 106° |
| 2026-04-24 22:22 | 32.77742 | -117.05521 | 2995 ft | 211 kts | 105° |
| 2026-04-24 22:22 | 32.77382 | -117.03844 | 2987 ft | 211 kts | 105° |
| 2026-04-24 22:23 | 32.76951 | -117.02179 | 2982 ft | 208 kts | 119° |
| 2026-04-24 22:23 | 32.76318 | -117.01322 | 2952 ft | 205 kts | 150° |
| 2026-04-24 22:23 | 32.74564 | -117.01203 | 2975 ft | 200 kts | 210° |
| 2026-04-24 22:23 | 32.73579 | -117.02334 | 2818 ft | 200 kts | 238° |
| 2026-04-24 22:24 | 32.73189 | -117.03330 | 2596 ft | 192 kts | 248° |
| 2026-04-24 22:24 | 32.72748 | -117.04728 | 2405 ft | 170 kts | 248° |
| 2026-04-24 22:24 | 32.72346 | -117.06034 | 2081 ft | 170 kts | 250° |
| 2026-04-24 22:24 | 32.71992 | -117.07348 | 1644 ft | 164 kts | 252° |
| 2026-04-24 22:25 | 32.71703 | -117.08591 | 1226 ft | 152 kts | 257° |
| 2026-04-24 22:25 | 32.71575 | -117.09757 | 1119 ft | 128 kts | 263° |
| 2026-04-24 22:25 | 32.71590 | -117.10797 | 927 ft | 126 kts | 266° |
| 2026-04-24 22:25 | 32.71729 | -117.11862 | 896 ft | 135 kts | 278° |
| 2026-04-24 22:26 | 32.71918 | -117.13007 | 837 ft | 143 kts | 279° |
| 2026-04-24 22:26 | 32.72205 | -117.14124 | 644 ft | 140 kts | 285° |
| 2026-04-24 22:26 | 32.72492 | -117.15250 | 513 ft | 152 kts | 282° |
| 2026-04-24 22:26 | 32.72735 | -117.16470 | 347 ft | 147 kts | 283° |
| 2026-04-24 22:27 | 32.73029 | -117.17593 | 125 ft | 138 kts | 283° |
| 2026-04-24 22:27 | 32.73278 | -117.18638 | 32 ft | 122 kts | 284° |
| 2026-04-24 22:27 | 32.73463 | -117.19408 | 29 ft | 70 kts | 286° |
| 2026-04-24 22:27 | 32.73573 | -117.19863 | 31 ft | 49 kts | 286° |
| 2026-04-24 22:28 | 32.73635 | -117.20113 | 29 ft | 22 kts | 285° |
| 2026-04-24 22:28 | 32.73602 | -117.20206 | 28 ft | 13 kts | 197° |
| 2026-04-24 22:28 | 32.73541 | -117.20155 | 29 ft | 13 kts | 107° |
| 2026-04-24 22:28 | 32.73513 | -117.20039 | 29 ft | 16 kts | 105° |
| 2026-04-24 22:29 | 32.73448 | -117.19772 | 30 ft | 17 kts | 107° |
| 2026-04-24 22:29 | 32.73387 | -117.19700 | 28 ft | 15 kts | 189° |
| 2026-04-24 22:29 | 32.73301 | -117.19725 | 27 ft | 9 kts | 157° |
| 2026-04-24 22:30 | 32.73279 | -117.19703 | 27 ft | 0 kts | 137° |